createdAt,value
2019-02-27T00:01:26.094Z,6.96
2019-02-27T00:03:59.854Z,7.04
2019-02-27T00:06:31.392Z,7.26
2019-02-27T00:09:02.893Z,6.94
2019-02-27T00:11:35.750Z,6.68
2019-02-27T00:14:08.149Z,6.51
2019-02-27T00:16:41.729Z,6.50
2019-02-27T00:19:13.307Z,6.52
2019-02-27T00:21:44.760Z,6.60
2019-02-27T00:24:16.303Z,6.41
2019-02-27T00:26:47.728Z,6.56
2019-02-27T00:29:20.284Z,6.42
2019-02-27T00:31:52.332Z,6.54
2019-02-27T00:34:23.957Z,6.39
2019-02-27T00:36:56.261Z,6.49
2019-02-27T00:39:32.160Z,6.28
2019-02-27T00:42:03.428Z,6.22
2019-02-27T00:44:37.828Z,6.34
2019-02-27T00:47:09.426Z,6.39
2019-02-27T00:49:40.733Z,6.41
2019-02-27T00:52:11.891Z,6.40
2019-02-27T00:54:44.341Z,6.29
2019-02-27T00:57:20.542Z,6.18
2019-02-27T00:59:48.629Z,5.94
2019-02-27T01:02:20.870Z,6.05
2019-02-27T01:04:52.073Z,6.01
2019-02-27T01:07:23.966Z,6.01
2019-02-27T01:09:55.870Z,6.13
2019-02-27T01:12:27.308Z,6.17
2019-02-27T01:14:59.340Z,6.26
2019-02-27T01:17:30.693Z,6.23
2019-02-27T01:20:01.850Z,6.30
2019-02-27T01:22:34.456Z,6.33
2019-02-27T01:25:05.826Z,6.37
2019-02-27T01:27:38.095Z,6.54
2019-02-27T01:30:14.155Z,6.42
2019-02-27T01:32:45.396Z,6.36
2019-02-27T01:35:18.718Z,5.99
2019-02-27T01:37:50.989Z,5.90
2019-02-27T01:40:22.276Z,5.97
2019-02-27T01:42:53.660Z,6.09
2019-02-27T01:45:25.446Z,5.86
2019-02-27T01:47:56.708Z,5.89
2019-02-27T01:50:30.754Z,5.93
2019-02-27T01:53:02.015Z,5.90
2019-02-27T01:55:35.417Z,6.06
2019-02-27T01:58:09.273Z,5.93
2019-02-27T02:00:39.794Z,6.00
2019-02-27T02:03:13.602Z,6.17
2019-02-27T02:05:44.516Z,6.26
2019-02-27T02:08:15.831Z,6.26
2019-02-27T02:10:47.079Z,6.25
2019-02-27T02:13:25.463Z,6.31
2019-02-27T02:16:35.305Z,6.48
2019-02-27T02:19:42.320Z,6.52
2019-02-27T02:23:04.583Z,6.54
2019-02-27T02:25:47.548Z,6.47
2019-02-27T02:28:59.211Z,6.52
2019-02-27T02:32:04.041Z,6.47
2019-02-27T02:34:58.055Z,6.34
2019-02-27T02:38:15.072Z,6.44
2019-02-27T02:41:27.220Z,6.53
2019-02-27T02:44:40.027Z,6.55
2019-02-27T02:47:48.474Z,6.44
2019-02-27T02:50:55.851Z,6.62
2019-02-27T02:54:16.723Z,6.61
2019-02-27T02:57:05.848Z,6.56
2019-02-27T03:00:20.973Z,6.30
2019-02-27T03:03:08.279Z,6.24
2019-02-27T03:06:05.055Z,6.15
2019-02-27T03:08:55.433Z,6.32
2019-02-27T03:11:54.818Z,6.05
2019-02-27T03:14:53.344Z,6.07
2019-02-27T03:18:02.611Z,6.12
2019-02-27T03:21:19.459Z,6.34
2019-02-27T03:24:46.960Z,6.36
2019-02-27T03:27:33.552Z,6.42
2019-02-27T03:30:36.861Z,6.52
2019-02-27T03:33:35.478Z,6.31
2019-02-27T03:36:57.366Z,6.38
2019-02-27T03:40:21.461Z,5.87
2019-02-27T03:43:46.102Z,5.83
2019-02-27T03:46:40.735Z,5.84
2019-02-27T03:49:41.013Z,5.76
2019-02-27T03:53:02.212Z,5.85
2019-02-27T03:56:18.646Z,5.94
2019-02-27T03:59:28.378Z,5.74
2019-02-27T04:02:22.551Z,5.64
2019-02-27T04:05:20.184Z,5.73
2019-02-27T04:08:17.850Z,5.63
2019-02-27T04:10:49.092Z,5.75
2019-02-27T04:13:26.477Z,5.83
2019-02-27T04:15:54.385Z,5.82
2019-02-27T04:18:28.381Z,5.94
2019-02-27T04:20:58.202Z,5.74
2019-02-27T04:23:29.817Z,5.74
2019-02-27T04:26:05.436Z,5.75
2019-02-27T04:28:33.991Z,5.92
2019-02-27T04:31:05.205Z,6.00
2019-02-27T04:33:36.747Z,5.86
2019-02-27T04:36:12.322Z,5.80
2019-02-27T04:38:42.388Z,5.79
2019-02-27T04:41:17.840Z,5.86
2019-02-27T04:43:46.784Z,5.81
2019-02-27T04:46:21.301Z,5.84
2019-02-27T04:48:51.316Z,5.77
2019-02-27T04:51:22.876Z,5.76
2019-02-27T04:53:54.596Z,5.77
2019-02-27T04:56:25.941Z,5.71
2019-02-27T04:58:57.314Z,5.83
2019-02-27T05:01:28.601Z,5.72
2019-02-27T05:04:01.417Z,5.77
2019-02-27T05:06:32.790Z,5.87
2019-02-27T05:09:04.517Z,5.79
2019-02-27T05:11:37.571Z,5.80
2019-02-27T05:14:08.922Z,5.94
2019-02-27T05:16:40.185Z,5.91
2019-02-27T05:19:11.437Z,5.97
2019-02-27T05:21:42.602Z,5.99
2019-02-27T05:24:15.727Z,5.94
2019-02-27T05:26:46.977Z,5.98
2019-02-27T05:29:19.408Z,5.89
2019-02-27T05:31:53.295Z,5.86
2019-02-27T05:34:25.038Z,5.90
2019-02-27T05:36:56.220Z,5.95
2019-02-27T05:39:27.477Z,5.84
2019-02-27T05:42:00.873Z,5.91
2019-02-27T05:44:32.271Z,5.92
2019-02-27T05:47:03.465Z,5.94
2019-02-27T05:49:53.962Z,5.97
2019-02-27T05:52:25.699Z,5.99
2019-02-27T05:54:57.264Z,5.87
2019-02-27T05:57:28.590Z,5.79
2019-02-27T06:00:02.548Z,5.79
2019-02-27T06:02:33.523Z,5.92
2019-02-27T06:05:05.160Z,5.83
2019-02-27T06:07:36.476Z,6.00
2019-02-27T06:10:11.467Z,6.05
2019-02-27T06:12:43.815Z,6.21
2019-02-27T06:15:16.650Z,6.11
2019-02-27T06:17:49.091Z,6.23
2019-02-27T06:20:21.023Z,6.30
2019-02-27T06:22:52.682Z,6.45
2019-02-27T06:25:24.101Z,6.29
2019-02-27T06:27:55.512Z,6.31
2019-02-27T06:30:30.330Z,6.16
2019-02-27T06:33:00.259Z,6.03
2019-02-27T06:35:34.230Z,6.11
2019-02-27T06:38:04.775Z,6.12
2019-02-27T06:40:42.101Z,6.30
2019-02-27T06:43:10.814Z,6.35
2019-02-27T06:45:45.576Z,6.31
2019-02-27T06:48:17.765Z,6.25
2019-02-27T06:50:49.164Z,6.25
2019-02-27T06:53:20.363Z,6.32
2019-02-27T06:55:53.410Z,6.41
2019-02-27T06:58:24.904Z,6.51
2019-02-27T07:00:56.287Z,6.55
2019-02-27T07:03:29.433Z,6.47
2019-02-27T07:08:09.946Z,6.93
2019-02-27T07:10:41.935Z,7.46
2019-02-27T07:13:13.250Z,8.15
2019-02-27T07:15:48.176Z,8.69
2019-02-27T07:18:21.099Z,9.28
2019-02-27T07:20:52.629Z,9.28
2019-02-27T07:23:24.184Z,8.92
2019-02-27T07:25:55.678Z,8.90
2019-02-27T07:28:27.220Z,9.17
2019-02-27T07:30:59.719Z,9.08
2019-02-27T07:33:31.178Z,9.21
2019-02-27T07:36:04.292Z,8.94
2019-02-27T07:38:35.739Z,8.92
2019-02-27T07:41:07.145Z,8.71
2019-02-27T07:43:38.539Z,8.85
2019-02-27T07:46:12.512Z,9.27
2019-02-27T07:48:45.196Z,9.22
2019-02-27T07:51:17.438Z,9.31
2019-02-27T07:53:51.426Z,9.42
2019-02-27T07:56:23.237Z,10.02
2019-02-27T07:58:54.729Z,10.44
2019-02-27T08:01:26.289Z,10.50
2019-02-27T08:03:58.069Z,9.94
2019-02-27T08:06:29.472Z,9.93
2019-02-27T08:09:01.549Z,9.63
2019-02-27T08:11:34.714Z,9.32
2019-02-27T08:14:08.331Z,9.69
2019-02-27T08:16:40.942Z,9.76
2019-02-27T08:19:12.370Z,9.77
2019-02-27T08:21:45.641Z,10.05
2019-02-27T08:24:33.799Z,10.00
2019-02-27T08:27:13.759Z,10.34
2019-02-27T08:30:24.852Z,10.10
2019-02-27T08:32:58.250Z,10.23
2019-02-27T08:35:33.109Z,10.39
2019-02-27T08:38:08.790Z,10.72
2019-02-27T08:40:40.414Z,10.56
2019-02-27T08:43:13.014Z,10.60
2019-02-27T08:46:26.193Z,11.29
2019-02-27T08:48:57.720Z,11.29
2019-02-27T08:54:21.736Z,11.42
2019-02-27T08:56:53.938Z,11.13
2019-02-27T08:59:27.468Z,11.13
2019-02-27T09:01:59.194Z,11.30
2019-02-27T09:04:30.502Z,11.22
2019-02-27T09:07:02.734Z,11.25
2019-02-27T09:09:36.344Z,11.36
2019-02-27T09:12:13.410Z,11.57
2019-02-27T09:14:44.584Z,11.41
2019-02-27T09:17:16.798Z,11.44
2019-02-27T09:19:48.391Z,11.29
2019-02-27T09:22:19.672Z,11.50
2019-02-27T09:24:51.071Z,11.64
2019-02-27T09:27:24.148Z,11.76
2019-02-27T09:29:55.437Z,11.79
2019-02-27T09:32:28.338Z,11.91
2019-02-27T09:35:12.052Z,12.10
2019-02-27T09:37:44.876Z,12.03
2019-02-27T09:40:20.708Z,11.98
2019-02-27T09:42:53.903Z,12.08
2019-02-27T09:45:34.603Z,12.04
2019-02-27T09:48:09.406Z,12.25
2019-02-27T09:50:47.724Z,12.18
2019-02-27T09:53:18.859Z,12.23
2019-02-27T09:56:11.591Z,12.39
2019-02-27T09:58:51.345Z,12.51
2019-02-27T10:01:29.266Z,12.71
2019-02-27T10:04:09.686Z,12.81
2019-02-27T10:06:45.560Z,12.80
2019-02-27T10:09:19.470Z,12.93
2019-02-27T10:11:53.184Z,12.94
2019-02-27T10:14:24.812Z,12.84
2019-02-27T10:16:56.813Z,12.84
2019-02-27T10:19:28.824Z,12.90
2019-02-27T10:22:01.367Z,12.91
2019-02-27T10:24:38.061Z,13.03
2019-02-27T10:30:11.465Z,13.06
2019-02-27T10:32:42.219Z,13.19
2019-02-27T10:35:15.385Z,13.30
2019-02-27T10:37:50.475Z,13.29
2019-02-27T10:40:20.934Z,13.32
2019-02-27T10:42:52.877Z,13.29
2019-02-27T10:45:24.575Z,13.38
2019-02-27T10:47:57.469Z,13.25
2019-02-27T10:50:29.746Z,13.39
2019-02-27T10:53:01.885Z,13.54
2019-02-27T10:55:37.203Z,13.57
2019-02-27T11:01:28.093Z,13.76
2019-02-27T11:04:00.567Z,13.86
2019-02-27T11:06:37.766Z,13.88
2019-02-27T11:09:23.824Z,13.84
2019-02-27T11:11:55.583Z,14.02
2019-02-27T11:14:31.630Z,13.90
2019-02-27T11:17:02.570Z,14.01
2019-02-27T11:19:34.904Z,14.13
2019-02-27T11:22:07.257Z,14.16
2019-02-27T11:24:38.768Z,14.15
2019-02-27T11:27:10.241Z,14.15
2019-02-27T11:29:43.169Z,14.25
2019-02-27T11:32:14.682Z,14.43
2019-02-27T11:34:48.468Z,14.51
2019-02-27T11:37:19.948Z,14.59
2019-02-27T11:39:51.418Z,14.43
2019-02-27T11:42:24.180Z,14.42
2019-02-27T11:44:56.974Z,14.46
2019-02-27T11:47:28.507Z,14.53
2019-02-27T11:49:59.957Z,14.61
2019-02-27T11:52:31.833Z,14.65
2019-02-27T11:55:03.298Z,14.73
2019-02-27T11:57:34.764Z,14.62
2019-02-27T12:00:06.989Z,14.74
2019-02-27T12:02:41.375Z,14.75
2019-02-27T12:05:14.967Z,14.82
2019-02-27T12:07:50.799Z,14.68
2019-02-27T12:10:24.636Z,14.83
2019-02-27T12:13:00.739Z,14.89
2019-02-27T12:15:33.252Z,14.92
2019-02-27T12:18:04.703Z,15.00
2019-02-27T12:20:36.142Z,14.93
2019-02-27T12:23:10.130Z,14.87
2019-02-27T12:25:45.011Z,14.87
2019-02-27T12:28:19.948Z,15.01
2019-02-27T12:30:51.949Z,15.12
2019-02-27T12:33:23.461Z,15.26
2019-02-27T12:35:55.461Z,15.20
2019-02-27T12:38:27.657Z,15.12
2019-02-27T12:40:59.119Z,15.09
2019-02-27T12:43:32.653Z,15.12
2019-02-27T12:46:04.425Z,15.30
2019-02-27T12:48:36.287Z,15.30
2019-02-27T12:51:08.074Z,15.24
2019-02-27T12:53:39.469Z,15.18
2019-02-27T12:56:33.257Z,15.26
2019-02-27T12:59:05.149Z,15.34
2019-02-27T13:01:36.888Z,15.29
2019-02-27T13:04:08.542Z,15.26
2019-02-27T13:06:40.108Z,15.41
2019-02-27T13:09:11.735Z,15.48
2019-02-27T13:11:44.982Z,15.49
2019-02-27T13:14:16.971Z,15.64
2019-02-27T13:16:49.524Z,15.53
2019-02-27T13:19:21.982Z,15.48
2019-02-27T13:21:55.025Z,15.54
2019-02-27T13:24:26.822Z,15.61
2019-02-27T13:26:58.184Z,15.43
2019-02-27T13:29:29.624Z,15.50
2019-02-27T13:32:01.682Z,15.44
2019-02-27T13:34:33.025Z,15.46
2019-02-27T13:37:06.943Z,15.42
2019-02-27T13:39:38.218Z,15.44
2019-02-27T13:42:09.597Z,15.44
2019-02-27T13:44:40.847Z,15.52
2019-02-27T13:47:12.496Z,15.60
2019-02-27T13:49:45.027Z,15.45
2019-02-27T13:52:17.436Z,15.38
2019-02-27T13:54:50.191Z,15.35
2019-02-27T13:57:25.052Z,15.41
2019-02-27T13:59:56.826Z,15.58
2019-02-27T14:02:28.537Z,15.51
2019-02-27T14:05:06.516Z,15.44
2019-02-27T14:07:37.891Z,15.49
2019-02-27T14:10:09.930Z,15.53
2019-02-27T14:12:41.666Z,15.60
2019-02-27T14:15:15.018Z,15.68
2019-02-27T14:17:46.519Z,15.64
2019-02-27T14:20:18.849Z,15.63
2019-02-27T14:22:50.600Z,15.76
2019-02-27T14:25:28.508Z,15.78
2019-02-27T14:27:58.686Z,15.86
2019-02-27T14:30:35.718Z,15.83
2019-02-27T14:33:06.700Z,15.76
2019-02-27T14:35:38.123Z,15.72
2019-02-27T14:38:09.362Z,15.79
2019-02-27T14:40:41.542Z,15.71
2019-02-27T14:43:12.883Z,15.76
2019-02-27T14:45:44.914Z,15.60
2019-02-27T14:48:18.172Z,15.67
2019-02-27T14:50:49.718Z,15.60
2019-02-27T14:53:21.187Z,15.65
2019-02-27T14:55:52.628Z,15.64
2019-02-27T14:58:26.997Z,15.69
2019-02-27T15:00:58.630Z,15.68
2019-02-27T15:03:30.193Z,15.65
2019-02-27T15:06:01.507Z,15.60
2019-02-27T15:08:33.404Z,15.63
2019-02-27T15:11:05.001Z,15.52
2019-02-27T15:13:36.573Z,15.31
2019-02-27T15:16:08.030Z,15.34
2019-02-27T15:18:39.445Z,15.30
2019-02-27T15:21:13.247Z,15.22
2019-02-27T15:23:44.053Z,15.18
2019-02-27T15:26:16.436Z,15.23
2019-02-27T15:28:48.810Z,15.17
2019-02-27T15:31:21.432Z,15.09
2019-02-27T15:33:54.005Z,15.10
2019-02-27T15:36:31.036Z,15.12
2019-02-27T15:39:02.910Z,15.11
2019-02-27T15:41:36.048Z,15.11
2019-02-27T15:44:07.685Z,15.06
2019-02-27T15:46:39.331Z,15.02
2019-02-27T15:49:12.825Z,14.99
2019-02-27T15:51:44.221Z,14.93
2019-02-27T15:54:15.598Z,14.98
2019-02-27T15:56:47.189Z,14.83
2019-02-27T15:59:18.554Z,14.78
2019-02-27T16:01:50.742Z,14.65
2019-02-27T16:04:22.234Z,14.65
2019-02-27T16:06:53.617Z,14.76
2019-02-27T16:09:25.217Z,14.58
2019-02-27T16:11:56.585Z,14.46
2019-02-27T16:14:30.019Z,14.44
2019-02-27T16:17:01.192Z,14.37
2019-02-27T16:19:32.650Z,14.45
2019-02-27T16:22:04.006Z,14.40
2019-02-27T16:24:35.963Z,14.37
2019-02-27T16:27:08.909Z,14.39
2019-02-27T16:29:40.820Z,14.24
2019-02-27T16:32:13.382Z,14.25
2019-02-27T16:34:47.496Z,14.16
2019-02-27T16:37:22.810Z,14.13
2019-02-27T16:39:55.407Z,14.22
2019-02-27T16:42:26.658Z,14.00
2019-02-27T16:44:58.146Z,14.00
2019-02-27T16:47:30.144Z,13.99
2019-02-27T16:50:03.138Z,14.08
2019-02-27T16:52:39.183Z,13.88
2019-02-27T16:55:13.347Z,13.86
2019-02-27T16:57:44.956Z,13.78
2019-02-27T17:00:21.895Z,13.75
2019-02-27T17:02:54.438Z,13.67
2019-02-27T17:05:26.408Z,13.56
2019-02-27T17:08:02.083Z,13.54
2019-02-27T17:10:32.575Z,13.48
2019-02-27T17:13:05.055Z,13.37
2019-02-27T17:15:36.914Z,13.33
2019-02-27T17:18:08.314Z,13.32
2019-02-27T17:20:46.066Z,13.23
2019-02-27T17:23:14.567Z,13.17
2019-02-27T17:25:45.941Z,13.09
2019-02-27T17:28:17.322Z,13.06
2019-02-27T17:30:49.266Z,13.05
2019-02-27T17:33:23.013Z,12.98
2019-02-27T17:35:58.537Z,12.99
2019-02-27T17:38:28.866Z,12.94
2019-02-27T17:41:00.610Z,12.89
2019-02-27T17:43:33.035Z,12.88
2019-02-27T17:46:08.025Z,12.83
2019-02-27T17:48:39.449Z,12.85
2019-02-27T17:51:10.747Z,12.77
2019-02-27T17:53:42.247Z,12.76
2019-02-27T17:56:16.270Z,12.70
2019-02-27T17:58:47.942Z,12.58
2019-02-27T18:01:25.141Z,12.63
2019-02-27T18:03:55.603Z,12.60
2019-02-27T18:06:27.229Z,12.61
2019-02-27T18:08:58.952Z,12.57
2019-02-27T18:11:30.448Z,12.50
2019-02-27T18:14:01.946Z,12.45
2019-02-27T18:16:36.085Z,12.42
2019-02-27T18:19:07.613Z,12.34
2019-02-27T18:21:39.107Z,12.35
2019-02-27T18:24:11.653Z,12.36
2019-02-27T18:26:50.068Z,12.29
2019-02-27T18:29:19.095Z,12.23
2019-02-27T18:31:53.595Z,12.25
2019-02-27T18:34:25.565Z,12.41
2019-02-27T18:36:57.020Z,12.46
2019-02-27T18:39:28.555Z,12.23
2019-02-27T18:42:03.415Z,12.17
2019-02-27T18:44:38.279Z,12.20
2019-02-27T18:47:10.051Z,12.16
2019-02-27T18:49:42.447Z,12.17
2019-02-27T18:52:21.168Z,11.95
2019-02-27T18:54:49.192Z,11.92
2019-02-27T18:57:21.968Z,11.95
2019-02-27T18:59:53.525Z,12.16
2019-02-27T19:02:24.762Z,12.11
2019-02-27T19:04:56.254Z,11.98
2019-02-27T19:07:27.447Z,11.68
2019-02-27T19:09:59.203Z,11.67
2019-02-27T19:12:31.334Z,11.61
2019-02-27T19:15:03.368Z,11.56
2019-02-27T19:17:36.928Z,11.51
2019-02-27T19:20:18.112Z,11.48
2019-02-27T19:22:50.624Z,11.44
2019-02-27T19:25:22.099Z,11.57
2019-02-27T19:27:54.459Z,11.59
2019-02-27T19:30:26.629Z,11.59
2019-02-27T19:33:01.730Z,11.54
2019-02-27T19:35:31.340Z,11.34
2019-02-27T19:38:05.867Z,11.29
2019-02-27T19:40:37.435Z,11.35
2019-02-27T19:43:09.265Z,11.42
2019-02-27T19:45:42.242Z,11.30
2019-02-27T19:48:14.086Z,11.26
2019-02-27T19:50:46.417Z,11.16
2019-02-27T19:53:19.240Z,11.15
2019-02-27T19:55:50.953Z,11.09
2019-02-27T19:58:28.270Z,11.04
2019-02-27T20:01:00.689Z,10.92
2019-02-27T20:03:35.468Z,10.98
2019-02-27T20:06:08.562Z,11.01
2019-02-27T20:08:44.360Z,10.96
2019-02-27T20:11:17.698Z,11.01
2019-02-27T20:13:54.746Z,11.04
2019-02-27T20:16:36.199Z,10.97
2019-02-27T20:19:22.351Z,11.06
2019-02-27T20:22:15.476Z,10.96
2019-02-27T20:24:49.265Z,10.92
2019-02-27T20:27:25.875Z,10.82
2019-02-27T20:30:15.432Z,10.92
2019-02-27T20:32:53.869Z,10.83
2019-02-27T20:35:42.853Z,10.82
2019-02-27T20:38:15.990Z,10.88
2019-02-27T20:40:48.514Z,10.81
2019-02-27T20:43:21.386Z,10.85
2019-02-27T20:45:54.594Z,10.80
2019-02-27T20:48:39.538Z,10.77
2019-02-27T20:54:04.593Z,10.54
2019-02-27T20:56:36.845Z,10.53
2019-02-27T21:02:02.172Z,10.47
2019-02-27T21:04:39.251Z,10.48
2019-02-27T21:07:31.206Z,10.41
2019-02-27T21:10:05.164Z,10.25
2019-02-27T21:12:40.752Z,10.29
2019-02-27T21:15:22.509Z,10.23
2019-02-27T21:18:06.769Z,10.19
2019-02-27T21:20:42.171Z,10.23
2019-02-27T21:23:24.803Z,10.16
2019-02-27T21:26:12.101Z,10.05
2019-02-27T21:31:58.234Z,10.16
2019-02-27T21:34:42.402Z,10.12
2019-02-27T21:37:16.262Z,9.91
2019-02-27T21:39:57.126Z,9.89
2019-02-27T21:42:40.993Z,9.87
2019-02-27T21:45:31.239Z,9.91
2019-02-27T21:48:26.680Z,9.72
2019-02-27T21:51:47.669Z,9.75
2019-02-27T21:54:51.652Z,9.76
2019-02-27T22:03:18.157Z,9.73
2019-02-27T22:05:52.972Z,9.74
2019-02-27T22:08:25.341Z,9.65
2019-02-27T22:11:05.701Z,9.70
2019-02-27T22:13:46.403Z,9.50
2019-02-27T22:16:21.167Z,9.51
2019-02-27T22:18:54.302Z,9.51
2019-02-27T22:21:27.267Z,9.39
2019-02-27T22:24:00.173Z,9.30
2019-02-27T22:26:38.437Z,9.21
2019-02-27T22:29:30.212Z,9.25
2019-02-27T22:32:07.835Z,9.18
2019-02-27T22:34:41.240Z,9.11
2019-02-27T22:37:18.453Z,9.10
2019-02-27T22:39:49.622Z,9.05
2019-02-27T22:42:24.696Z,8.93
2019-02-27T22:45:00.643Z,8.92
2019-02-27T22:47:37.183Z,8.91
2019-02-27T22:50:10.521Z,8.87
2019-02-27T22:52:42.881Z,8.85
2019-02-27T22:55:15.560Z,8.71
2019-02-27T22:57:50.045Z,8.79
2019-02-27T23:01:02.579Z,8.68
2019-02-27T23:03:46.801Z,8.67
2019-02-27T23:06:19.519Z,8.63
2019-02-27T23:08:54.460Z,8.46
2019-02-27T23:11:29.267Z,8.35
2019-02-27T23:14:03.175Z,8.32
2019-02-27T23:16:37.007Z,8.33
2019-02-27T23:19:51.977Z,8.28
2019-02-27T23:22:50.535Z,8.39
2019-02-27T23:25:23.747Z,8.26
2019-02-27T23:28:03.004Z,8.16
2019-02-27T23:33:35.842Z,8.09
2019-02-27T23:36:05.808Z,8.08
2019-02-27T23:38:44.597Z,8.06
2019-02-27T23:41:22.923Z,8.20
2019-02-27T23:43:52.416Z,8.14
2019-02-27T23:59:17.548Z,8.31
